Time;durP1;ratioP1;P1;durP2;ratioP2;P2;SDS_P1;SDS_P2;PMS_P1;PMS_P2;Temp;Humidity;BMP_temperature;BMP_pressure;BME280_temperature;BME280_humidity;BME280_pressure;Samples;Min_cycle;Max_cycle;Signal;HPM_P1;HPM_P2
2022/05/10 00:02:08;;;;;;;4.78;4.07;;;;;;;14.69;69.47;101390.25;4956520;28;20610;-71
2022/05/10 00:04:33;;;;;;;4.20;3.97;;;;;;;14.65;69.51;101382.66;4944403;28;20065;-71
2022/05/10 00:06:58;;;;;;;4.45;4.05;;;;;;;14.70;69.66;101391.91;4972394;28;20406;-70
2022/05/10 00:09:27;;;;;;;4.53;4.13;;;;;;;14.70;69.18;101386.56;4977671;28;20239;-71
2022/05/10 00:11:53;;;;;;;4.20;3.90;;;;;;;14.65;69.96;101380.88;4976749;28;20005;-70
2022/05/10 00:14:18;;;;;;;4.55;4.20;;;;;;;14.65;69.96;101385.34;4969741;28;20045;-70
2022/05/10 00:16:44;;;;;;;5.22;4.30;;;;;;;14.56;70.10;101392.34;4959181;28;20034;-71
2022/05/10 00:19:14;;;;;;;9.18;4.15;;;;;;;14.62;69.92;101378.47;4938509;28;20125;-71
2022/05/10 00:21:40;;;;;;;4.53;4.05;;;;;;;14.49;70.45;101383.28;4957981;28;20148;-71
2022/05/10 00:24:05;;;;;;;4.20;3.90;;;;;;;14.42;70.75;101383.03;4940076;28;20014;-71
2022/05/10 00:26:31;;;;;;;5.07;4.18;;;;;;;14.48;70.35;101387.78;4945261;28;20113;-71
2022/05/10 00:28:56;;;;;;;4.70;4.40;;;;;;;14.40;70.60;101382.34;4963853;28;20045;-70
2022/05/10 00:31:21;;;;;;;4.80;4.40;;;;;;;14.29;70.84;101380.69;4997358;28;20021;-70
2022/05/10 00:33:47;;;;;;;4.32;4.03;;;;;;;14.20;71.43;101385.06;4949493;28;20999;-70
2022/05/10 00:36:13;;;;;;;4.72;4.35;;;;;;;14.15;71.32;101381.16;4961969;28;20518;-71
2022/05/10 00:38:39;;;;;;;4.70;4.30;;;;;;;14.27;71.36;101380.00;4967709;28;20140;-71
2022/05/10 00:41:32;;;;;;;5.47;4.70;;;;;;;14.18;71.68;101371.06;4980163;28;20013;-71
2022/05/10 00:44:02;;;;;;;7.35;5.00;;;;;;;14.14;71.93;101376.81;4990925;28;20631;-70
2022/05/10 00:47:00;;;;;;;4.35;4.00;;;;;;;14.14;71.93;101380.31;4938240;28;20014;-70
2022/05/10 00:49:40;;;;;;;4.70;4.40;;;;;;;14.31;71.13;101369.91;4933025;28;20022;-71
2022/05/10 00:52:13;;;;;;;4.47;4.18;;;;;;;14.16;71.63;101377.53;4941927;28;20010;-70
2022/05/10 00:54:54;;;;;;;4.83;4.63;;;;;;;14.14;71.64;101379.47;4962615;28;21058;-71
2022/05/10 00:57:37;;;;;;;4.75;4.35;;;;;;;14.03;72.23;101383.13;4967507;28;20065;-71
2022/05/10 01:00:15;;;;;;;4.53;4.18;;;;;;;13.88;72.69;101380.94;4964659;28;20013;-71
2022/05/10 01:02:47;;;;;;;4.63;4.40;;;;;;;14.01;72.14;101369.97;4963691;28;20121;-71
2022/05/10 01:05:30;;;;;;;5.05;4.57;;;;;;;13.94;72.27;101371.53;4985233;28;21014;-71
2022/05/10 01:08:08;;;;;;;5.00;4.53;;;;;;;13.92;72.36;101370.84;4990459;28;20026;-70
2022/05/10 01:10:47;;;;;;;7.93;4.70;;;;;;;13.90;72.53;101364.81;4989454;28;20431;-70
2022/05/10 01:13:50;;;;;;;5.30;4.82;;;;;;;13.83;72.83;101367.25;4980700;28;20790;-70
2022/05/10 01:16:17;;;;;;;4.80;4.40;;;;;;;13.85;72.48;101364.44;4940960;28;20043;-71
2022/05/10 01:18:43;;;;;;;4.97;4.75;;;;;;;13.71;73.00;101361.22;4913082;28;20140;-71
2022/05/10 01:21:12;;;;;;;5.07;4.70;;;;;;;13.67;73.11;101364.31;4950014;28;20010;-70
2022/05/10 01:23:48;;;;;;;4.93;4.63;;;;;;;13.68;73.38;101364.16;4986093;28;20025;-71
2022/05/10 01:26:39;;;;;;;6.20;4.90;;;;;;;13.70;73.25;101350.72;5011263;28;20109;-71
2022/05/10 01:29:19;;;;;;;5.13;4.82;;;;;;;13.66;73.30;101355.47;4996471;28;20037;-71
2022/05/10 01:33:29;;;;;;;4.80;4.60;;;;;;;13.59;73.65;101354.38;4971225;28;20010;-71
2022/05/10 01:34:38;;;;;;;5.30;4.90;;;;;;;13.51;73.84;101348.94;4953558;28;20018;-71
2022/05/10 01:37:08;;;;;;;5.35;4.95;;;;;;;13.51;74.04;101356.91;4955074;28;20406;-71
2022/05/10 01:39:39;;;;;;;5.20;4.90;;;;;;;13.54;74.05;101353.97;4956045;28;21057;-71
2022/05/10 01:42:23;;;;;;;6.47;5.15;;;;;;;13.50;74.00;101357.91;4973070;28;20988;-71
2022/05/10 01:44:59;;;;;;;5.63;5.22;;;;;;;13.44;74.51;101345.16;4932492;28;20123;-70
2022/05/10 01:47:32;;;;;;;5.13;4.82;;;;;;;13.39;74.59;101350.88;4949552;28;20124;-71
2022/05/10 01:50:05;;;;;;;5.72;5.20;;;;;;;13.39;74.79;101348.22;4944850;28;20775;-70
2022/05/10 01:52:31;;;;;;;5.65;5.25;;;;;;;13.30;74.84;101344.56;4979719;28;20532;-71
2022/05/10 01:55:06;;;;;;;5.43;5.10;;;;;;;13.29;74.92;101337.56;4995697;28;20013;-71
2022/05/10 01:57:33;;;;;;;5.25;4.95;;;;;;;13.21;75.19;101329.44;4980774;28;20860;-70
2022/05/10 02:00:11;;;;;;;5.75;4.93;;;;;;;13.23;74.91;101323.03;4961563;28;20968;-71
2022/05/10 02:02:38;;;;;;;5.35;5.05;;;;;;;13.20;75.23;101325.13;4991950;28;21026;-71
2022/05/10 02:05:05;;;;;;;5.80;5.30;;;;;;;13.21;74.99;101324.13;4990406;28;20700;-70
2022/05/10 02:07:30;;;;;;;6.32;5.13;;;;;;;13.25;74.89;101325.53;4977384;28;20483;-71
2022/05/10 02:10:02;;;;;;;5.80;5.40;;;;;;;13.27;74.85;101323.59;4997557;28;20760;-71
2022/05/10 02:12:42;;;;;;;5.35;4.95;;;;;;;13.31;74.53;101327.66;4979539;28;20014;-70
2022/05/10 02:15:12;;;;;;;5.57;5.07;;;;;;;13.33;74.42;101325.69;4995445;28;20933;-71
2022/05/10 02:18:03;;;;;;;5.28;4.85;;;;;;;13.22;74.97;101324.00;4962825;28;20318;-71
2022/05/10 02:20:45;;;;;;;5.13;4.68;;;;;;;13.19;74.95;101320.78;4984279;28;20120;-70
2022/05/10 02:23:20;;;;;;;4.97;4.68;;;;;;;13.19;75.13;101321.63;4979793;28;20045;-71
2022/05/10 02:25:51;;;;;;;5.10;4.80;;;;;;;13.10;75.35;101326.94;4979607;28;20485;-72
2022/05/10 02:28:19;;;;;;;5.03;4.78;;;;;;;13.07;75.65;101328.03;4982958;28;21030;-71
2022/05/10 02:30:44;;;;;;;7.03;4.65;;;;;;;13.15;75.58;101330.03;5020357;28;20033;-70
2022/05/10 02:33:13;;;;;;;5.47;4.93;;;;;;;13.12;75.46;101331.13;4981640;28;20017;-70
2022/05/10 02:35:49;;;;;;;4.95;4.65;;;;;;;13.10;75.64;101333.09;4964614;28;20700;-71
2022/05/10 02:38:18;;;;;;;5.60;5.05;;;;;;;13.14;75.46;101334.50;4993876;28;20033;-72
2022/05/10 02:40:44;;;;;;;5.43;5.03;;;;;;;13.06;75.66;101337.00;4980874;28;20026;-70
2022/05/10 02:43:15;;;;;;;5.47;5.00;;;;;;;13.02;75.86;101335.59;4980477;28;20371;-71
2022/05/10 02:45:42;;;;;;;7.13;5.03;;;;;;;12.94;76.16;101323.00;4977794;28;20276;-72
2022/05/10 02:48:13;;;;;;;5.18;4.78;;;;;;;12.92;76.36;101330.28;4990431;28;20016;-71
2022/05/10 02:50:38;;;;;;;5.10;4.70;;;;;;;12.96;75.97;101326.38;4975897;28;20017;-71
2022/05/10 02:53:03;;;;;;;5.28;4.88;;;;;;;12.84;76.35;101327.47;5006277;27;20021;-71
2022/05/10 02:56:05;;;;;;;4.93;4.65;;;;;;;12.87;76.24;101332.50;5023312;28;20052;-70
2022/05/10 02:58:48;;;;;;;5.45;5.10;;;;;;;12.83;76.30;101321.31;4981122;28;20635;-71
2022/05/10 03:01:34;;;;;;;6.03;4.80;;;;;;;12.81;76.59;101319.78;5034124;28;20343;-71
2022/05/10 03:04:00;;;;;;;5.43;5.13;;;;;;;12.81;76.27;101322.44;5027388;28;20033;-72
2022/05/10 03:06:26;;;;;;;6.50;4.95;;;;;;;12.79;76.37;101319.91;4991141;28;20136;-71
2022/05/10 03:08:52;;;;;;;5.90;5.40;;;;;;;12.88;76.23;101315.59;4998655;28;20035;-71
2022/05/10 03:11:18;;;;;;;5.60;5.22;;;;;;;12.84;76.22;101314.19;4981083;28;20025;-71
2022/05/10 03:13:44;;;;;;;5.18;4.90;;;;;;;12.75;76.47;101305.22;4965332;28;20906;-71
2022/05/10 03:16:09;;;;;;;5.60;5.20;;;;;;;12.78;76.59;101310.25;4966003;28;20245;-71
2022/05/10 03:18:35;;;;;;;4.90;4.60;;;;;;;12.78;76.67;101306.78;4988590;28;20116;-70
2022/05/10 03:21:00;;;;;;;6.85;5.18;;;;;;;12.77;76.72;101302.44;4981756;28;20033;-70
2022/05/10 03:23:27;;;;;;;5.38;5.03;;;;;;;12.69;76.97;101289.81;4985091;28;20013;-70
2022/05/10 03:25:54;;;;;;;5.25;4.95;;;;;;;12.68;77.00;101290.81;5001674;28;20245;-71
2022/05/10 03:28:19;;;;;;;5.78;5.07;;;;;;;12.64;77.02;101287.59;4988069;28;20437;-71
2022/05/10 03:30:45;;;;;;;4.97;4.68;;;;;;;12.70;77.11;101295.03;5020247;28;20018;-69
2022/05/10 03:33:10;;;;;;;5.10;4.63;;;;;;;12.70;76.70;101292.38;5003194;28;20010;-69
2022/05/10 03:35:35;;;;;;;5.38;4.90;;;;;;;12.76;76.88;101283.03;4996153;28;20014;-70
2022/05/10 03:38:01;;;;;;;5.35;4.95;;;;;;;12.75;76.59;101280.47;4977421;28;20110;-71
2022/05/10 03:40:26;;;;;;;5.45;5.05;;;;;;;12.70;76.74;101279.09;4948721;28;20913;-71
2022/05/10 03:42:53;;;;;;;5.47;5.07;;;;;;;12.79;76.46;101282.75;4981986;28;20091;-71
2022/05/10 03:45:19;;;;;;;5.40;4.93;;;;;;;12.81;76.11;101279.94;4979758;28;20018;-70
2022/05/10 03:47:45;;;;;;;5.50;5.00;;;;;;;12.84;76.24;101279.66;5003141;28;20068;-70
2022/05/10 03:50:11;;;;;;;6.10;5.60;;;;;;;12.84;76.09;101288.44;4999254;28;20297;-71
2022/05/10 03:52:38;;;;;;;5.38;5.07;;;;;;;12.83;76.03;101291.25;4964915;28;20005;-71
2022/05/10 03:55:05;;;;;;;6.03;5.32;;;;;;;12.82;76.07;101292.25;4995644;28;20112;-71
2022/05/10 03:57:30;;;;;;;5.20;4.90;;;;;;;12.82;75.83;101289.59;4983560;28;20811;-71
2022/05/10 03:59:56;;;;;;;5.50;4.97;;;;;;;12.81;76.29;101290.56;4995294;28;20020;-72
2022/05/10 04:02:21;;;;;;;6.85;5.22;;;;;;;12.86;76.17;101283.00;4995854;28;20761;-72
2022/05/10 04:04:46;;;;;;;6.00;5.40;;;;;;;12.86;75.97;101283.00;4962812;28;20021;-72
2022/05/10 04:07:12;;;;;;;5.30;5.00;;;;;;;12.85;76.08;101281.34;4971425;28;20082;-72
2022/05/10 04:09:37;;;;;;;5.15;4.75;;;;;;;12.80;76.08;101284.38;4979669;28;20029;-72
2022/05/10 04:12:03;;;;;;;7.03;5.32;;;;;;;12.85;76.00;101278.69;4996403;28;20014;-71
2022/05/10 04:14:28;;;;;;;5.50;5.20;;;;;;;12.86;75.82;101272.38;4971861;28;20028;-73
2022/05/10 04:16:53;;;;;;;5.88;5.35;;;;;;;12.80;76.27;101272.94;4953418;28;20252;-72
2022/05/10 04:19:19;;;;;;;5.10;4.80;;;;;;;12.79;76.34;101281.88;4976575;28;20919;-72
2022/05/10 04:21:44;;;;;;;5.57;5.18;;;;;;;12.80;76.38;101271.13;4975289;28;20236;-72
2022/05/10 04:24:10;;;;;;;5.50;5.05;;;;;;;12.80;76.58;101267.63;4974388;28;20022;-72
2022/05/10 04:26:37;;;;;;;5.55;5.10;;;;;;;12.85;76.20;101270.72;4993843;28;20009;-72
2022/05/10 04:29:02;;;;;;;5.45;4.97;;;;;;;12.89;76.24;101272.94;4968538;28;20010;-72
2022/05/10 04:31:27;;;;;;;5.47;5.07;;;;;;;12.86;76.58;101261.75;4978991;28;20040;-71
2022/05/10 04:33:53;;;;;;;5.22;4.93;;;;;;;12.88;76.77;101270.44;4962836;28;20005;-71
2022/05/10 04:36:22;;;;;;;5.18;4.82;;;;;;;12.94;76.26;101269.88;4987413;28;20044;-72
2022/05/10 04:38:48;;;;;;;5.22;4.90;;;;;;;13.02;75.86;101272.66;4975951;27;20021;-71
2022/05/10 04:41:24;;;;;;;5.50;5.10;;;;;;;13.13;75.97;101278.81;4957730;28;20028;-72
2022/05/10 04:43:49;;;;;;;5.40;4.93;;;;;;;13.15;75.85;101283.00;4994405;28;20284;-72
2022/05/10 04:46:15;;;;;;;5.40;5.10;;;;;;;13.20;75.41;101269.31;4958374;28;20758;-72
2022/05/10 04:48:40;;;;;;;5.55;5.13;;;;;;;13.20;75.44;101274.63;4989235;28;20033;-72
2022/05/10 04:51:06;;;;;;;5.47;5.18;;;;;;;13.20;75.94;101287.94;4977445;28;20405;-72
2022/05/10 04:53:32;;;;;;;5.78;5.28;;;;;;;13.23;75.88;101284.97;4964732;28;20755;-72
2022/05/10 04:55:57;;;;;;;5.47;5.13;;;;;;;13.20;76.29;101279.97;4959952;28;20093;-72
2022/05/10 04:58:22;;;;;;;5.40;5.00;;;;;;;13.25;76.21;101280.34;4952103;28;20971;-72
2022/05/10 05:00:48;;;;;;;5.63;5.13;;;;;;;13.32;75.46;101283.28;4936632;28;20014;-72
2022/05/10 05:03:13;;;;;;;5.32;4.93;;;;;;;13.39;75.05;101290.56;4984001;28;20018;-72
2022/05/10 05:05:38;;;;;;;5.60;5.13;;;;;;;13.40;74.98;101281.63;4987006;28;20109;-72
2022/05/10 05:08:04;;;;;;;5.45;5.10;;;;;;;13.51;75.40;101298.44;4991073;28;20415;-72
2022/05/10 05:10:29;;;;;;;5.28;4.88;;;;;;;13.54;75.26;101280.34;4986683;28;20587;-72
2022/05/10 05:12:55;;;;;;;5.18;4.78;;;;;;;13.58;75.10;101283.56;4965044;28;20036;-72
2022/05/10 05:15:20;;;;;;;7.15;5.00;;;;;;;13.59;75.10;101279.91;4953858;28;20079;-73
2022/05/10 05:17:45;;;;;;;5.00;4.70;;;;;;;13.71;75.29;101277.94;4951587;28;20049;-73
2022/05/10 05:20:11;;;;;;;5.55;5.15;;;;;;;13.74;74.84;101282.97;4988461;28;20090;-72
2022/05/10 05:22:36;;;;;;;5.20;4.80;;;;;;;13.81;74.96;101284.06;4993214;28;20908;-73
2022/05/10 05:25:02;;;;;;;5.28;4.88;;;;;;;13.84;75.21;101282.94;4991353;28;20021;-73
2022/05/10 05:27:28;;;;;;;5.43;4.93;;;;;;;13.99;74.65;101294.78;4972875;28;20014;-72
2022/05/10 05:29:53;;;;;;;5.50;4.80;;;;;;;14.12;74.16;101301.63;4970733;28;20025;-72
2022/05/10 05:32:21;;;;;;;5.30;4.90;;;;;;;14.25;73.37;101296.78;4992131;28;20452;-72
2022/05/10 05:34:46;;;;;;;5.18;4.88;;;;;;;14.28;74.11;101291.16;4956641;28;20029;-73
2022/05/10 05:39:56;;;;;;;5.00;4.57;;;;;;;14.65;71.37;101287.63;4974650;28;20044;-72
2022/05/10 05:42:21;;;;;;;4.95;4.47;;;;;;;14.81;71.49;101291.47;4977408;28;20021;-72
2022/05/10 05:44:46;;;;;;;5.05;4.57;;;;;;;14.91;71.58;101287.72;4953745;28;20517;-71
2022/05/10 05:47:12;;;;;;;5.47;5.05;;;;;;;15.04;71.41;101290.00;4971139;28;20243;-72
2022/05/10 05:49:38;;;;;;;4.57;4.28;;;;;;;15.17;70.46;101291.44;4961678;28;20240;-72
2022/05/10 05:52:04;;;;;;;4.90;4.57;;;;;;;15.33;69.71;101288.91;4955211;28;20122;-73
2022/05/10 05:54:33;;;;;;;5.18;4.50;;;;;;;15.52;68.46;101295.06;4975864;28;20017;-72
2022/05/10 05:57:05;;;;;;;4.80;4.40;;;;;;;15.60;69.06;101293.28;4969932;28;21087;-72
2022/05/10 05:59:30;;;;;;;5.00;4.65;;;;;;;15.73;69.41;101298.19;4966148;28;20053;-73
2022/05/10 06:01:56;;;;;;;4.40;4.20;;;;;;;15.89;69.17;101288.66;5010621;28;20365;-71
2022/05/10 06:04:21;;;;;;;5.47;5.07;;;;;;;15.89;68.76;101286.84;4957367;28;20013;-71
2022/05/10 06:06:47;;;;;;;5.05;4.55;;;;;;;16.00;67.83;101288.38;4992217;28;20859;-72
2022/05/10 06:09:12;;;;;;;4.88;4.57;;;;;;;16.10;68.46;101289.09;4973229;28;20022;-72
2022/05/10 06:11:38;;;;;;;6.10;4.60;;;;;;;16.25;68.35;101288.50;4976661;28;20858;-72
2022/05/10 06:14:04;;;;;;;4.28;4.07;;;;;;;16.39;67.09;101290.53;4982478;28;20032;-72
2022/05/10 06:16:29;;;;;;;4.80;4.40;;;;;;;16.49;66.38;101288.56;4990958;28;20195;-72
2022/05/10 06:18:54;;;;;;;4.75;4.40;;;;;;;16.49;67.15;101285.06;4986779;28;20246;-73
2022/05/10 06:21:20;;;;;;;5.10;4.70;;;;;;;16.60;67.37;101290.09;4957311;28;19998;-73
2022/05/10 06:23:45;;;;;;;5.55;5.03;;;;;;;16.68;67.48;101288.44;4951720;28;20795;-73
2022/05/10 06:26:10;;;;;;;6.15;5.10;;;;;;;16.75;67.46;101286.78;4992914;28;20461;-73
2022/05/10 06:28:37;;;;;;;4.70;4.30;;;;;;;16.78;67.84;101286.47;4968543;28;20014;-73
2022/05/10 06:31:05;;;;;;;6.70;4.47;;;;;;;16.81;66.38;101283.47;4957419;28;20006;-72
2022/05/10 06:33:30;;;;;;;4.30;4.00;;;;;;;16.92;65.80;101293.03;4960552;28;20020;-73
2022/05/10 06:35:56;;;;;;;4.45;4.15;;;;;;;16.95;64.61;101290.03;4990089;28;20022;-73
2022/05/10 06:38:27;;;;;;;4.63;4.20;;;;;;;17.04;65.44;101275.66;4971893;28;20053;-72
2022/05/10 06:40:52;;;;;;;4.88;4.55;;;;;;;17.06;66.21;101273.69;4969534;28;20580;-72
2022/05/10 06:43:18;;;;;;;7.43;4.43;;;;;;;17.17;65.73;101269.81;4946778;28;20052;-72
2022/05/10 06:45:43;;;;;;;4.47;4.15;;;;;;;17.25;65.86;101269.00;4943522;28;20790;-72
2022/05/10 06:48:09;;;;;;;4.53;4.18;;;;;;;17.40;65.80;101269.13;4937352;28;20129;-72
2022/05/10 06:50:35;;;;;;;4.70;4.28;;;;;;;17.55;65.48;101255.91;4953227;28;20734;-73
2022/05/10 06:53:00;;;;;;;6.40;4.10;;;;;;;17.65;64.92;101253.88;4941160;28;20322;-72
2022/05/10 06:55:27;;;;;;;6.38;4.13;;;;;;;17.79;63.70;101257.69;4956795;28;20877;-73
2022/05/10 06:57:52;;;;;;;5.05;4.13;;;;;;;17.84;62.22;101250.00;4958315;28;20980;-72
2022/05/10 07:00:18;;;;;;;4.40;4.07;;;;;;;17.84;62.95;101250.81;4942104;28;20010;-72
2022/05/10 07:02:43;;;;;;;4.03;3.80;;;;;;;17.83;62.26;101248.31;4958690;28;20061;-72
2022/05/10 07:05:10;;;;;;;4.07;3.67;;;;;;;17.94;62.53;101247.97;4956806;28;20534;-73
2022/05/10 07:07:35;;;;;;;6.45;4.20;;;;;;;17.98;60.31;101256.50;4958208;28;20457;-72
2022/05/10 07:10:01;;;;;;;5.13;3.88;;;;;;;18.08;61.23;101253.59;4941790;28;20064;-74
2022/05/10 07:12:26;;;;;;;4.72;4.05;;;;;;;18.10;60.30;101248.91;4958205;28;20010;-72
2022/05/10 07:14:52;;;;;;;4.70;4.30;;;;;;;18.05;61.83;101240.56;4960331;28;20017;-72
2022/05/10 07:17:17;;;;;;;6.80;4.25;;;;;;;18.10;61.11;101255.09;4959396;28;20453;-72
2022/05/10 07:19:42;;;;;;;4.60;4.20;;;;;;;18.13;61.47;101244.03;4973369;28;20467;-72
2022/05/10 07:22:08;;;;;;;9.68;4.32;;;;;;;18.19;61.22;101243.34;4948951;28;20113;-73
2022/05/10 07:24:33;;;;;;;8.73;4.30;;;;;;;18.36;61.62;101248.63;4921464;28;20014;-72
2022/05/10 07:26:58;;;;;;;8.60;4.55;;;;;;;18.49;60.17;101246.19;4929772;28;20032;-72
2022/05/10 07:29:24;;;;;;;11.95;4.68;;;;;;;18.58;58.74;101248.84;4942903;28;20005;-72
2022/05/10 07:31:49;;;;;;;5.40;4.10;;;;;;;18.64;58.57;101246.28;4947908;28;20018;-73
2022/05/10 07:34:15;;;;;;;5.55;4.20;;;;;;;18.70;58.89;101239.38;4953853;28;20021;-72
2022/05/10 07:36:40;;;;;;;4.18;3.88;;;;;;;18.85;57.50;101242.97;4933986;28;20140;-73
2022/05/10 07:39:07;;;;;;;4.38;4.07;;;;;;;18.88;56.89;101247.13;4982701;28;20462;-73
2022/05/10 07:41:33;;;;;;;4.20;3.90;;;;;;;18.93;57.03;101249.31;4966570;28;20072;-73
2022/05/10 07:43:58;;;;;;;5.18;4.50;;;;;;;19.01;56.69;101238.50;4977177;28;20135;-73
2022/05/10 07:46:24;;;;;;;4.32;4.03;;;;;;;19.11;55.45;101243.63;4962127;28;21002;-73
2022/05/10 07:48:49;;;;;;;4.38;3.97;;;;;;;19.25;55.35;101239.28;4940370;28;20391;-73
2022/05/10 07:51:14;;;;;;;4.43;4.03;;;;;;;19.35;54.69;101243.38;4942213;28;20058;-72
2022/05/10 07:53:41;;;;;;;10.77;4.22;;;;;;;19.52;54.76;101233.31;4977890;28;20919;-73
2022/05/10 07:56:07;;;;;;;4.88;4.45;;;;;;;19.79;55.83;101239.09;4937668;28;20061;-73
2022/05/10 07:58:33;;;;;;;4.85;4.00;;;;;;;19.94;54.21;101236.41;4941326;28;20048;-73
2022/05/10 08:00:59;;;;;;;4.72;4.13;;;;;;;20.13;52.86;101229.59;4960502;28;20052;-73
2022/05/10 08:03:25;;;;;;;4.70;3.97;;;;;;;20.17;52.39;101224.72;4977083;28;20477;-73
2022/05/10 08:05:51;;;;;;;5.18;4.07;;;;;;;20.42;51.60;101222.50;4955973;28;20091;-73
2022/05/10 08:08:19;;;;;;;3.95;3.72;;;;;;;20.68;51.59;101229.22;4947406;28;20068;-72
2022/05/10 08:10:46;;;;;;;5.00;4.50;;;;;;;20.95;51.77;101222.22;4940263;28;20286;-73
2022/05/10 08:13:13;;;;;;;4.10;3.67;;;;;;;20.96;51.80;101223.06;4944009;28;20018;-73
2022/05/10 08:15:38;;;;;;;5.25;4.00;;;;;;;20.99;50.92;101219.97;4960453;28;20026;-72
2022/05/10 08:18:04;;;;;;;3.80;3.58;;;;;;;21.09;51.42;101215.06;4958188;28;20333;-73
2022/05/10 08:20:30;;;;;;;4.22;3.70;;;;;;;21.20;51.07;101219.09;4956218;28;21000;-73
2022/05/10 08:22:55;;;;;;;4.30;3.90;;;;;;;21.45;49.07;101224.88;4961057;28;20022;-73
2022/05/10 08:25:20;;;;;;;7.88;3.80;;;;;;;21.60;48.05;101214.84;4970669;28;20034;-72
2022/05/10 08:27:46;;;;;;;5.43;3.53;;;;;;;21.69;47.38;101212.81;4974749;28;20948;-72
2022/05/10 08:30:12;;;;;;;5.85;3.75;;;;;;;21.60;47.65;101206.78;4975515;28;20637;-72
2022/05/10 08:32:38;;;;;;;6.07;3.85;;;;;;;21.68;48.60;101203.06;4981782;28;20026;-72
2022/05/10 08:35:04;;;;;;;4.18;3.80;;;;;;;21.77;47.38;101192.94;4990212;28;20021;-72
2022/05/10 08:37:29;;;;;;;4.95;4.55;;;;;;;21.91;46.66;101205.47;4965835;28;20045;-72
2022/05/10 08:39:55;;;;;;;6.43;4.40;;;;;;;22.04;46.64;101209.22;4949142;28;20514;-72
2022/05/10 08:42:32;;;;;;;6.57;5.68;;;;;;;22.17;47.96;101200.34;4969512;28;20263;-73
2022/05/10 08:45:07;;;;;;;9.23;4.18;;;;;;;22.44;48.42;101204.00;4955595;28;20082;-73
2022/05/10 08:47:33;;;;;;;5.30;4.47;;;;;;;22.49;47.11;101198.81;4927174;28;20014;-72
2022/05/10 08:50:00;;;;;;;5.57;4.03;;;;;;;22.57;46.73;101203.19;4962300;28;20046;-72
2022/05/10 08:52:30;;;;;;;5.57;3.75;;;;;;;22.43;46.26;101191.53;4948221;28;20861;-73
2022/05/10 08:54:56;;;;;;;5.38;3.92;;;;;;;22.53;46.01;101202.75;4953035;28;20886;-73
2022/05/10 08:57:47;;;;;;;6.20;3.78;;;;;;;22.58;47.17;101194.06;4976422;28;20031;-72
2022/05/10 09:00:39;;;;;;;4.40;4.10;;;;;;;22.52;47.34;101190.34;4956967;28;20495;-72
2022/05/10 09:03:19;;;;;;;4.85;3.75;;;;;;;22.88;46.30;101186.41;4959103;28;20918;-73
2022/05/10 09:05:44;;;;;;;6.18;3.70;;;;;;;23.15;45.75;101189.13;4971230;28;20006;-74
2022/05/10 09:08:28;;;;;;;5.15;3.78;;;;;;;23.44;43.99;101184.31;4954688;28;20026;-72
2022/05/10 09:10:59;;;;;;;4.53;3.75;;;;;;;23.66;43.65;101174.88;4969258;28;20014;-73
2022/05/10 09:13:24;;;;;;;5.63;4.53;;;;;;;23.97;42.35;101176.03;4955262;28;20021;-73
2022/05/10 09:15:55;;;;;;;6.68;4.68;;;;;;;24.11;42.86;101173.25;4950654;28;20021;-72
2022/05/10 09:18:37;;;;;;;4.80;4.30;;;;;;;24.41;42.41;101173.50;4958389;28;20028;-73
2022/05/10 09:21:08;;;;;;;5.25;4.05;;;;;;;24.52;41.56;101166.53;4961377;28;20503;-74
2022/05/10 09:23:52;;;;;;;4.10;3.80;;;;;;;24.37;40.43;101155.19;4993055;28;20251;-73
2022/05/10 09:26:17;;;;;;;;;;;;;;;24.76;41.17;101158.69;4964277;28;20018;-73
2022/05/10 09:28:46;;;;;;;6.40;4.93;;;;;;;25.22;42.75;101159.31;4937291;28;19936;-73
2022/05/10 09:34:46;;;;;;;3.80;3.50;;;;;;;25.76;37.06;101154.13;4878184;28;20520;-74
2022/05/10 09:37:24;;;;;;;4.30;3.70;;;;;;;26.02;37.91;101142.13;4937179;28;20983;-74
2022/05/10 09:40:19;;;;;;;3.95;3.30;;;;;;;26.10;38.05;101140.97;4942106;28;20042;-74
2022/05/10 09:42:47;;;;;;;4.20;3.15;;;;;;;26.05;37.53;101141.66;4975154;28;20806;-73
2022/05/10 09:45:26;;;;;;;5.53;4.10;;;;;;;25.79;37.76;101137.38;4968141;28;20010;-73
2022/05/10 09:48:02;;;;;;;7.63;3.70;;;;;;;25.45;37.71;101132.38;4971991;28;20064;-73
2022/05/10 09:50:39;;;;;;;5.75;3.53;;;;;;;25.43;38.21;101134.50;4957284;28;20044;-74
2022/05/10 09:53:11;;;;;;;3.72;3.35;;;;;;;26.22;36.84;101130.97;4975956;28;20317;-73
2022/05/10 09:55:37;;;;;;;3.72;3.33;;;;;;;26.91;36.71;101122.34;4975453;28;20010;-73
2022/05/10 09:58:13;;;;;;;4.13;2.85;;;;;;;27.39;33.92;101115.00;4969479;28;20042;-73
2022/05/10 10:00:44;;;;;;;3.00;2.80;;;;;;;27.17;32.70;101109.34;4955985;28;20131;-73
2022/05/10 10:03:09;;;;;;;4.22;2.80;;;;;;;26.91;31.56;101106.06;4941133;28;20473;-74
2022/05/10 10:05:35;;;;;;;3.10;2.80;;;;;;;26.49;32.89;101106.13;4924314;28;20310;-73
2022/05/10 10:08:01;;;;;;;2.60;2.40;;;;;;;26.66;32.56;101101.66;4971352;28;20187;-72
2022/05/10 10:10:30;;;;;;;3.05;2.45;;;;;;;27.12;31.55;101096.47;4941262;28;20890;-74
2022/05/10 10:12:55;;;;;;;4.25;2.63;;;;;;;28.09;31.39;101097.59;4939286;28;20011;-73
2022/05/10 10:15:37;;;;;;;3.25;2.80;;;;;;;28.47;29.97;101102.53;4987858;28;20842;-73
2022/05/10 10:18:06;;;;;;;4.35;2.70;;;;;;;28.68;30.48;101101.00;4952149;28;20239;-73
2022/05/10 10:20:54;;;;;;;2.65;2.50;;;;;;;27.88;30.50;101098.28;4967182;28;20451;-73
2022/05/10 10:23:25;;;;;;;6.68;2.42;;;;;;;27.12;31.67;101101.91;4954030;28;20113;-73
2022/05/10 10:25:50;;;;;;;2.63;2.50;;;;;;;26.59;31.84;101098.22;4956634;28;20835;-73
2022/05/10 10:28:36;;;;;;;6.00;2.60;;;;;;;27.54;30.33;101087.28;4923591;28;20027;-74
2022/05/10 10:31:09;;;;;;;3.92;2.50;;;;;;;28.37;29.16;101093.16;4970426;28;20065;-74
2022/05/10 10:34:18;;;;;;;2.33;2.28;;;;;;;28.93;28.84;101089.66;4949735;28;20430;-74
2022/05/10 10:36:54;;;;;;;3.22;2.30;;;;;;;27.73;30.57;101086.03;4945851;28;20036;-74
2022/05/10 10:39:29;;;;;;;2.67;2.47;;;;;;;27.39;31.57;101079.66;4956372;28;20394;-76
2022/05/10 10:42:01;;;;;;;2.58;2.33;;;;;;;27.03;31.58;101082.44;4941788;28;20188;-74
2022/05/10 10:44:28;;;;;;;2.53;2.40;;;;;;;27.79;30.74;101078.78;4984963;28;20014;-74
2022/05/10 10:47:15;;;;;;;3.95;2.80;;;;;;;28.34;29.54;101077.31;4969291;28;20101;-75
2022/05/10 10:50:06;;;;;;;3.10;2.30;;;;;;;28.29;29.55;101071.78;4972318;28;20119;-74
2022/05/10 10:52:31;;;;;;;2.38;2.15;;;;;;;28.10;30.96;101066.59;4960762;28;20006;-74
2022/05/10 10:54:57;;;;;;;4.70;2.17;;;;;;;29.17;30.11;101086.69;4939774;28;20017;-74
2022/05/10 10:57:44;;;;;;;2.38;2.15;;;;;;;28.41;29.00;101067.06;4955613;28;20135;-73
2022/05/10 11:00:17;;;;;;;2.28;2.17;;;;;;;28.11;29.75;101075.56;4976757;28;20452;-74
2022/05/10 11:02:57;;;;;;;3.05;2.30;;;;;;;28.49;28.37;101081.34;4912905;28;20222;-74
2022/05/10 11:05:41;;;;;;;3.00;2.60;;;;;;;28.25;28.62;101068.72;4950138;28;20015;-73
2022/05/10 11:08:28;;;;;;;3.67;2.78;;;;;;;28.28;29.40;101065.50;4991061;28;20021;-73
2022/05/10 11:11:30;;;;;;;3.72;2.10;;;;;;;28.24;29.54;101053.47;4959484;28;20517;-73
2022/05/10 11:14:00;;;;;;;2.13;2.03;;;;;;;28.56;27.95;101057.50;4989128;28;20124;-73
2022/05/10 11:16:43;;;;;;;3.72;2.08;;;;;;;28.49;27.33;101054.13;4952908;28;20622;-73
2022/05/10 11:19:21;;;;;;;2.53;2.33;;;;;;;28.05;28.15;101050.19;4957248;28;20240;-73
2022/05/10 11:21:57;;;;;;;5.43;2.05;;;;;;;27.67;28.78;101048.94;4957104;28;20502;-74
2022/05/10 11:24:28;;;;;;;2.30;2.17;;;;;;;27.32;28.31;101047.16;4959860;28;20440;-73
2022/05/10 11:27:12;;;;;;;2.65;2.00;;;;;;;27.00;28.86;101050.31;4964138;28;20885;-72
2022/05/10 11:30:07;;;;;;;4.93;2.13;;;;;;;26.95;30.23;101043.94;4982634;28;20032;-72
2022/05/10 11:32:45;;;;;;;2.75;2.22;;;;;;;26.68;29.32;101045.25;4980362;28;20013;-73
2022/05/10 11:35:22;;;;;;;4.60;2.28;;;;;;;26.46;30.07;101041.47;4980764;28;20534;-72
2022/05/10 11:38:02;;;;;;;3.38;2.17;;;;;;;26.47;29.45;101037.69;4968840;28;20490;-73
2022/05/10 11:40:58;;;;;;;4.70;2.20;;;;;;;26.65;29.78;101042.16;4953671;28;21016;-73
2022/05/10 11:43:51;;;;;;;3.15;2.25;;;;;;;26.44;30.00;101039.00;5003485;27;20318;-73
2022/05/10 11:46:19;;;;;;;7.03;2.13;;;;;;;26.77;29.16;101040.31;5008176;28;20366;-73